createdAt,value
2023-04-22T00:00:30.241Z,13.14
2023-04-22T00:10:30.486Z,13.22
2023-04-22T00:20:30.709Z,13.05
2023-04-22T00:30:30.955Z,12.87
2023-04-22T00:40:31.230Z,12.74
2023-04-22T00:50:31.332Z,12.68
2023-04-22T01:00:31.374Z,12.85
2023-04-22T01:10:31.599Z,12.86
2023-04-22T01:20:31.952Z,12.64
2023-04-22T01:30:32.111Z,12.59
2023-04-22T01:40:32.110Z,12.54
2023-04-22T01:50:32.335Z,12.52
2023-04-22T02:00:32.544Z,12.54
2023-04-22T02:10:32.823Z,12.70
2023-04-22T02:20:32.824Z,12.53
2023-04-22T02:30:33.075Z,12.37
2023-04-22T02:40:33.294Z,12.31
2023-04-22T02:50:33.556Z,12.24
2023-04-22T03:00:33.783Z,12.27
2023-04-22T03:10:34.021Z,12.05
2023-04-22T03:20:34.223Z,11.85
2023-04-22T03:30:34.502Z,12.13
2023-04-22T03:40:34.698Z,12.14
2023-04-22T03:50:34.967Z,11.73
2023-04-22T04:00:34.978Z,11.85
2023-04-22T04:10:35.232Z,11.72
2023-04-22T04:20:35.444Z,11.80
2023-04-22T04:30:35.729Z,11.72
2023-04-22T04:40:35.734Z,11.61
2023-04-22T04:50:35.987Z,11.39
2023-04-22T05:00:36.190Z,11.54
2023-04-22T05:10:36.463Z,11.73
2023-04-22T05:20:36.490Z,11.95
2023-04-22T05:30:36.850Z,11.86
2023-04-22T05:40:36.847Z,11.90
2023-04-22T05:50:37.124Z,12.24
2023-04-22T06:00:37.118Z,12.60
2023-04-22T06:10:37.369Z,12.75
2023-04-22T06:20:37.600Z,12.78
2023-04-22T06:30:37.844Z,13.00
2023-04-22T06:40:38.046Z,13.19
2023-04-22T06:50:38.331Z,13.46
2023-04-22T07:00:38.322Z,13.63
2023-04-22T07:10:38.608Z,13.73
2023-04-22T07:20:38.776Z,13.69
2023-04-22T07:30:39.152Z,13.84
2023-04-22T07:40:39.180Z,14.06
2023-04-22T07:50:39.531Z,14.57
2023-04-22T08:00:39.563Z,15.10
2023-04-22T08:10:39.805Z,15.64
2023-04-22T08:20:40.061Z,16.25
2023-04-22T08:30:40.392Z,16.25
2023-04-22T08:40:40.375Z,16.83
2023-04-22T08:50:40.643Z,17.48
2023-04-22T09:00:40.858Z,18.57
2023-04-22T09:10:41.219Z,18.47
2023-04-22T09:20:41.224Z,18.92
2023-04-22T09:30:41.519Z,19.14
2023-04-22T09:40:41.643Z,19.95
2023-04-22T09:50:41.740Z,20.57
2023-04-22T10:00:41.766Z,20.85
2023-04-22T10:10:42.018Z,20.97
2023-04-22T10:20:42.235Z,20.35
2023-04-22T10:30:42.644Z,20.55
2023-04-22T10:40:42.605Z,20.43
2023-04-22T10:50:42.856Z,20.91
2023-04-22T11:00:53.251Z,20.94
2023-04-22T11:10:44.867Z,21.12
2023-04-22T11:20:43.536Z,21.10
2023-04-22T11:30:43.531Z,21.38
2023-04-22T11:40:46.397Z,21.86
2023-04-22T11:50:43.860Z,22.14
2023-04-22T12:00:44.256Z,22.22
2023-04-22T12:10:44.310Z,22.98
2023-04-22T12:20:44.819Z,22.86
2023-04-22T12:30:44.641Z,22.88
2023-04-22T12:40:44.926Z,23.55
2023-04-22T12:50:44.929Z,23.69
2023-04-22T13:00:45.169Z,23.84
2023-04-22T13:10:45.395Z,23.79
2023-04-22T13:20:48.696Z,22.37
2023-04-22T13:30:45.694Z,22.20
2023-04-22T13:40:46.003Z,21.82
2023-04-22T13:50:46.016Z,23.16
2023-04-22T14:00:46.440Z,22.62
2023-04-22T14:10:46.460Z,21.44
2023-04-22T14:20:46.736Z,21.64
2023-04-22T14:30:46.799Z,22.58
2023-04-22T14:40:46.907Z,22.57
2023-04-22T14:50:46.915Z,21.19
2023-04-22T15:00:47.185Z,20.88
2023-04-22T15:10:47.257Z,21.50
2023-04-22T15:20:47.354Z,22.35
2023-04-22T15:30:47.373Z,22.64
2023-04-22T15:40:47.605Z,22.55
2023-04-22T15:50:47.847Z,21.59
2023-04-22T16:00:48.146Z,21.42
2023-04-22T16:10:48.332Z,21.10
2023-04-22T16:20:48.559Z,20.66
2023-04-22T16:30:48.776Z,20.13
2023-04-22T16:40:49.052Z,19.95
2023-04-22T16:50:49.053Z,19.59
2023-04-22T17:00:49.294Z,19.19
2023-04-22T17:10:49.523Z,19.13
2023-04-22T17:20:49.773Z,19.07
2023-04-22T17:30:49.962Z,18.66
2023-04-22T17:40:50.252Z,18.48
2023-04-22T17:50:50.290Z,18.37
2023-04-22T18:00:50.574Z,17.89
2023-04-22T18:10:50.765Z,17.70
2023-04-22T18:20:50.989Z,17.51
2023-04-22T18:30:52.324Z,17.34
2023-04-22T18:40:51.369Z,17.04
2023-04-22T18:50:51.386Z,16.68
2023-04-22T19:00:51.632Z,16.45
2023-04-22T19:10:51.847Z,16.41
2023-04-22T19:20:52.091Z,16.31
2023-04-22T19:30:52.373Z,16.30
2023-04-22T19:40:52.669Z,16.25
2023-04-22T19:50:52.676Z,16.25
2023-04-22T20:00:53.004Z,16.38
2023-04-22T20:10:53.216Z,15.92
2023-04-22T20:20:54.448Z,16.00
2023-04-22T20:30:53.579Z,15.92
2023-04-22T20:40:53.714Z,15.67
2023-04-22T20:50:53.726Z,15.43
2023-04-22T21:00:53.996Z,15.43
2023-04-22T21:10:54.162Z,15.57
2023-04-22T21:20:54.445Z,15.74
2023-04-22T21:30:54.506Z,14.94
2023-04-22T21:40:54.691Z,14.91
2023-04-22T21:50:54.912Z,15.01
2023-04-22T22:00:58.466Z,15.13
2023-04-22T22:10:55.319Z,15.25
2023-04-22T22:20:55.787Z,15.14
2023-04-22T22:30:55.633Z,14.88
2023-04-22T22:40:57.884Z,14.36
2023-04-22T22:50:56.096Z,14.55
2023-04-22T23:00:56.404Z,14.77
2023-04-22T23:10:56.389Z,14.37
2023-04-22T23:20:56.647Z,14.27
2023-04-22T23:30:56.869Z,14.36
2023-04-22T23:40:57.123Z,14.35
2023-04-22T23:50:57.134Z,14.20
